createdAt,value
2019-02-09T00:01:43.786Z,2.14
2019-02-09T00:04:16.020Z,2.01
2019-02-09T00:06:47.151Z,1.92
2019-02-09T00:09:18.281Z,1.96
2019-02-09T00:11:49.619Z,1.95
2019-02-09T00:14:20.692Z,1.91
2019-02-09T00:16:51.691Z,2.00
2019-02-09T00:19:23.003Z,1.97
2019-02-09T00:21:54.084Z,1.69
2019-02-09T00:24:25.063Z,1.77
2019-02-09T00:26:56.220Z,1.76
2019-02-09T00:29:27.265Z,1.48
2019-02-09T00:31:58.780Z,1.60
2019-02-09T00:34:29.751Z,1.81
2019-02-09T00:37:01.941Z,1.66
2019-02-09T00:39:32.946Z,1.64
2019-02-09T00:42:04.160Z,1.76
2019-02-09T00:44:35.372Z,2.02
2019-02-09T00:47:06.787Z,1.57
2019-02-09T00:49:37.795Z,1.69
2019-02-09T00:52:09.109Z,1.73
2019-02-09T00:54:40.251Z,1.89
2019-02-09T00:57:11.390Z,1.75
2019-02-09T00:59:42.420Z,1.35
2019-02-09T01:02:13.912Z,1.40
2019-02-09T01:04:45.048Z,1.73
2019-02-09T01:07:16.190Z,1.55
2019-02-09T01:09:47.248Z,1.26
2019-02-09T01:12:18.397Z,1.50
2019-02-09T01:14:49.526Z,1.91
2019-02-09T01:17:20.612Z,1.61
2019-02-09T01:19:51.756Z,1.56
2019-02-09T01:22:22.886Z,1.78
2019-02-09T01:24:53.852Z,1.67
2019-02-09T01:27:25.297Z,1.52
2019-02-09T01:30:02.107Z,1.71
2019-02-09T01:32:29.266Z,1.33
2019-02-09T01:35:00.340Z,1.18
2019-02-09T01:37:31.494Z,1.06
2019-02-09T01:40:02.668Z,1.31
2019-02-09T01:42:33.984Z,1.21
2019-02-09T01:45:06.871Z,1.47
2019-02-09T01:47:38.026Z,1.32
2019-02-09T01:50:11.113Z,1.07
2019-02-09T01:52:42.327Z,1.24
2019-02-09T01:55:13.904Z,1.18
2019-02-09T01:57:45.167Z,0.89
2019-02-09T02:00:18.609Z,0.76
2019-02-09T02:02:49.929Z,0.65
2019-02-09T02:05:22.069Z,0.54
2019-02-09T02:07:53.324Z,0.65
2019-02-09T02:10:27.341Z,0.71
2019-02-09T02:12:58.564Z,0.42
2019-02-09T02:15:30.305Z,0.62
2019-02-09T02:18:01.579Z,0.51
2019-02-09T02:20:32.915Z,0.67
2019-02-09T02:23:04.252Z,0.57
2019-02-09T02:25:35.570Z,0.54
2019-02-09T02:28:06.755Z,0.45
2019-02-09T02:30:38.408Z,0.43
2019-02-09T02:33:09.629Z,0.03
2019-02-09T02:35:40.746Z,0.04
2019-02-09T02:38:12.873Z,0.17
2019-02-09T02:40:44.023Z,0.14
2019-02-09T02:43:15.199Z,-0.08
2019-02-09T02:45:46.271Z,0.18
2019-02-09T02:48:17.432Z,0.77
2019-02-09T02:50:48.566Z,0.65
2019-02-09T02:53:19.696Z,0.89
2019-02-09T02:55:50.929Z,1.25
2019-02-09T02:58:21.940Z,0.73
2019-02-09T03:00:53.298Z,1.60
2019-02-09T03:03:24.387Z,1.63
2019-02-09T03:05:55.494Z,1.66
2019-02-09T03:08:26.798Z,1.86
2019-02-09T03:10:57.979Z,2.10
2019-02-09T03:13:29.089Z,2.22
2019-02-09T03:16:00.131Z,2.40
2019-02-09T03:18:31.251Z,2.55
2019-02-09T03:21:02.490Z,2.38
2019-02-09T03:23:33.637Z,2.27
2019-02-09T03:26:04.868Z,2.25
2019-02-09T03:28:36.079Z,2.38
2019-02-09T03:31:07.193Z,2.29
2019-02-09T03:33:38.306Z,2.45
2019-02-09T03:36:09.432Z,2.60
2019-02-09T03:38:40.912Z,2.65
2019-02-09T03:41:11.983Z,2.47
2019-02-09T03:43:43.162Z,2.54
2019-02-09T03:46:14.271Z,2.61
2019-02-09T03:48:45.457Z,2.69
2019-02-09T03:51:16.624Z,2.87
2019-02-09T03:53:47.866Z,2.80
2019-02-09T03:56:19.007Z,2.79
2019-02-09T03:58:50.117Z,3.15
2019-02-09T04:01:21.231Z,3.13
2019-02-09T04:03:52.297Z,3.09
2019-02-09T04:06:23.409Z,3.15
2019-02-09T04:08:54.535Z,3.33
2019-02-09T04:11:25.934Z,3.19
2019-02-09T04:13:57.043Z,3.28
2019-02-09T04:16:28.125Z,3.27
2019-02-09T04:18:59.288Z,3.26
2019-02-09T04:21:30.424Z,3.26
2019-02-09T04:24:01.502Z,3.14
2019-02-09T04:26:33.535Z,3.14
2019-02-09T04:29:04.677Z,3.17
2019-02-09T04:31:35.700Z,3.29
2019-02-09T04:34:06.863Z,3.26
2019-02-09T04:36:37.995Z,3.18
2019-02-09T04:39:09.165Z,3.22
2019-02-09T04:41:40.281Z,3.22
2019-02-09T04:44:11.346Z,3.20
2019-02-09T04:46:42.406Z,3.20
2019-02-09T04:49:13.515Z,3.27
2019-02-09T04:51:44.566Z,3.22
2019-02-09T04:54:15.568Z,3.29
2019-02-09T04:56:46.748Z,3.31
2019-02-09T04:59:17.957Z,3.43
2019-02-09T05:01:50.117Z,3.36
2019-02-09T05:04:21.108Z,3.31
2019-02-09T05:06:52.346Z,3.51
2019-02-09T05:09:23.563Z,3.41
2019-02-09T05:11:54.620Z,3.40
2019-02-09T05:14:25.754Z,3.24
2019-02-09T05:16:56.805Z,3.33
2019-02-09T05:19:27.889Z,3.33
2019-02-09T05:21:59.062Z,3.37
2019-02-09T05:24:30.111Z,3.41
2019-02-09T05:27:02.274Z,3.44
2019-02-09T05:29:33.330Z,3.49
2019-02-09T05:32:04.857Z,3.48
2019-02-09T05:34:35.900Z,3.50
2019-02-09T05:37:07.005Z,3.41
2019-02-09T05:39:39.211Z,3.39
2019-02-09T05:42:10.543Z,3.44
2019-02-09T05:44:41.752Z,3.62
2019-02-09T05:47:12.869Z,3.66
2019-02-09T05:49:43.946Z,3.78
2019-02-09T05:52:15.086Z,3.75
2019-02-09T05:54:47.124Z,3.94
2019-02-09T05:57:19.272Z,3.73
2019-02-09T05:59:50.348Z,3.67
2019-02-09T06:02:21.479Z,4.11
2019-02-09T06:04:52.561Z,4.18
2019-02-09T06:07:23.658Z,4.34
2019-02-09T06:09:54.685Z,4.21
2019-02-09T06:12:25.791Z,4.35
2019-02-09T06:14:56.858Z,4.45
2019-02-09T06:17:27.969Z,4.64
2019-02-09T06:19:59.139Z,4.72
2019-02-09T06:22:30.187Z,4.92
2019-02-09T06:25:01.255Z,4.93
2019-02-09T06:27:32.359Z,5.15
2019-02-09T06:30:03.536Z,5.17
2019-02-09T06:32:35.526Z,5.21
2019-02-09T06:35:07.202Z,5.19
2019-02-09T06:37:39.068Z,5.15
2019-02-09T06:40:11.656Z,5.10
2019-02-09T06:42:42.686Z,5.14
2019-02-09T06:45:16.408Z,5.22
2019-02-09T06:47:47.556Z,4.86
2019-02-09T06:50:36.580Z,4.89
2019-02-09T06:53:07.889Z,4.82
2019-02-09T06:55:38.984Z,4.83
2019-02-09T06:58:10.175Z,5.16
2019-02-09T07:00:41.208Z,5.19
2019-02-09T07:03:12.326Z,5.06
2019-02-09T07:05:43.386Z,5.41
2019-02-09T07:08:14.569Z,5.76
2019-02-09T07:10:45.715Z,6.01
2019-02-09T07:13:17.404Z,5.98
2019-02-09T07:15:48.541Z,6.04
2019-02-09T07:18:19.861Z,6.17
2019-02-09T07:20:51.146Z,5.95
2019-02-09T07:23:22.320Z,6.22
2019-02-09T07:25:53.804Z,6.17
2019-02-09T07:28:24.887Z,6.33
2019-02-09T07:30:56.123Z,6.14
2019-02-09T07:33:27.196Z,6.25
2019-02-09T07:35:58.176Z,6.25
2019-02-09T07:38:29.221Z,6.20
2019-02-09T07:41:00.308Z,6.15
2019-02-09T07:43:31.629Z,6.19
2019-02-09T07:46:02.800Z,6.22
2019-02-09T07:48:33.766Z,6.16
2019-02-09T07:51:04.932Z,6.18
2019-02-09T07:53:36.158Z,6.17
2019-02-09T07:56:07.310Z,6.23
2019-02-09T07:58:38.545Z,6.28
2019-02-09T08:01:09.679Z,6.38
2019-02-09T08:03:40.820Z,6.24
2019-02-09T08:06:11.960Z,6.18
2019-02-09T08:08:43.144Z,6.29
2019-02-09T08:11:14.141Z,6.12
2019-02-09T08:13:45.453Z,6.05
2019-02-09T08:16:16.751Z,6.16
2019-02-09T08:18:48.832Z,6.31
2019-02-09T08:21:20.083Z,6.38
2019-02-09T08:23:51.165Z,6.45
2019-02-09T08:26:22.296Z,6.54
2019-02-09T08:28:53.352Z,6.67
2019-02-09T08:31:24.940Z,6.84
2019-02-09T08:33:56.078Z,6.87
2019-02-09T08:36:27.248Z,6.91
2019-02-09T08:38:58.237Z,6.82
2019-02-09T08:41:29.387Z,6.76
2019-02-09T08:44:00.459Z,6.76
2019-02-09T08:46:31.600Z,6.75
2019-02-09T08:49:02.740Z,6.67
2019-02-09T08:51:33.946Z,6.71
2019-02-09T08:54:05.174Z,6.80
2019-02-09T08:56:36.380Z,6.77
2019-02-09T08:59:07.529Z,6.77
2019-02-09T09:01:38.749Z,6.78
2019-02-09T09:04:09.872Z,6.61
2019-02-09T09:06:40.999Z,6.77
2019-02-09T09:09:12.627Z,6.79
2019-02-09T09:11:43.782Z,6.74
2019-02-09T09:14:14.916Z,6.75
2019-02-09T09:16:46.080Z,6.81
2019-02-09T09:19:17.157Z,6.89
2019-02-09T09:21:48.336Z,6.87
2019-02-09T09:24:19.385Z,6.94
2019-02-09T09:26:50.521Z,6.97
2019-02-09T09:29:21.598Z,7.02
2019-02-09T09:31:52.672Z,7.14
2019-02-09T09:34:23.719Z,7.24
2019-02-09T09:36:54.901Z,7.31
2019-02-09T09:39:26.056Z,7.40
2019-02-09T09:41:57.209Z,7.46
2019-02-09T09:44:28.334Z,7.45
2019-02-09T09:46:59.599Z,7.46
2019-02-09T09:49:30.737Z,7.47
2019-02-09T09:52:01.901Z,7.39
2019-02-09T09:54:33.043Z,7.43
2019-02-09T09:57:04.182Z,7.49
2019-02-09T09:59:35.166Z,7.45
2019-02-09T10:02:06.341Z,7.44
2019-02-09T10:04:37.481Z,7.54
2019-02-09T10:07:08.611Z,7.65
2019-02-09T10:09:39.687Z,7.75
2019-02-09T10:12:10.700Z,7.81
2019-02-09T10:14:41.785Z,7.88
2019-02-09T10:17:12.923Z,7.93
2019-02-09T10:19:44.043Z,8.03
2019-02-09T10:22:15.126Z,8.02
2019-02-09T10:24:46.242Z,7.97
2019-02-09T10:27:17.414Z,8.03
2019-02-09T10:29:48.539Z,8.16
2019-02-09T10:32:19.670Z,8.20
2019-02-09T10:34:50.793Z,8.18
2019-02-09T10:37:21.935Z,8.22
2019-02-09T10:39:53.079Z,8.30
2019-02-09T10:42:24.144Z,8.25
2019-02-09T10:44:55.637Z,8.33
2019-02-09T10:47:26.640Z,8.32
2019-02-09T10:49:57.856Z,8.29
2019-02-09T10:52:29.012Z,8.46
2019-02-09T10:55:00.180Z,8.87
2019-02-09T10:57:31.308Z,8.70
2019-02-09T11:00:02.451Z,8.67
2019-02-09T11:02:33.664Z,8.60
2019-02-09T11:05:06.470Z,8.73
2019-02-09T11:07:37.636Z,8.95
2019-02-09T11:10:10.895Z,9.26
2019-02-09T11:12:41.966Z,9.10
2019-02-09T11:15:15.142Z,9.33
2019-02-09T11:17:46.320Z,9.29
2019-02-09T11:20:19.138Z,9.80
2019-02-09T11:22:50.341Z,9.95
2019-02-09T11:25:21.695Z,9.84
2019-02-09T11:27:52.946Z,9.63
2019-02-09T11:30:24.124Z,10.28
2019-02-09T11:33:01.600Z,9.72
2019-02-09T11:35:28.081Z,9.98
2019-02-09T11:37:59.219Z,10.31
2019-02-09T11:40:30.384Z,10.49
2019-02-09T11:43:01.670Z,9.83
2019-02-09T11:45:33.253Z,10.17
2019-02-09T11:48:04.775Z,10.47
2019-02-09T11:50:36.419Z,10.13
2019-02-09T11:53:08.726Z,12.74
2019-02-09T12:01:31.462Z,12.74
2019-02-09T12:04:02.560Z,12.74
2019-02-09T12:06:35.183Z,15.22
2019-02-09T12:09:09.386Z,14.06
2019-02-09T12:11:40.483Z,13.65
2019-02-09T12:14:11.603Z,13.66
2019-02-09T12:16:44.082Z,15.51
2019-02-09T12:19:15.268Z,14.46
2019-02-09T12:21:46.342Z,13.39
2019-02-09T12:24:17.505Z,14.34
2019-02-09T12:26:48.698Z,15.14
2019-02-09T12:29:19.705Z,12.11
2019-02-09T12:31:50.862Z,13.60
2019-02-09T12:34:22.038Z,13.60
2019-02-09T12:36:53.278Z,11.14
2019-02-09T12:39:24.440Z,11.08
2019-02-09T12:41:55.452Z,11.43
2019-02-09T12:44:26.530Z,10.15
2019-02-09T12:46:57.650Z,11.44
2019-02-09T12:49:28.842Z,10.41
2019-02-09T12:51:59.979Z,11.04
2019-02-09T12:54:31.066Z,10.54
2019-02-09T12:57:02.185Z,9.67
2019-02-09T12:59:33.246Z,9.53
2019-02-09T13:02:04.579Z,9.57
2019-02-09T13:04:35.685Z,9.80
2019-02-09T13:07:06.829Z,10.30
2019-02-09T13:09:38.000Z,10.21
2019-02-09T13:12:09.159Z,10.26
2019-02-09T13:14:40.257Z,11.92
2019-02-09T13:17:11.321Z,11.38
2019-02-09T13:19:42.483Z,10.94
2019-02-09T13:22:13.710Z,10.34
2019-02-09T13:24:44.758Z,11.25
2019-02-09T13:27:15.840Z,11.50
2019-02-09T13:29:47.012Z,11.57
2019-02-09T13:32:36.718Z,12.52
2019-02-09T13:35:08.291Z,12.66
2019-02-09T13:37:39.517Z,11.58
2019-02-09T13:40:12.221Z,11.23
2019-02-09T13:42:43.387Z,9.88
2019-02-09T13:45:21.135Z,9.77
2019-02-09T13:47:52.591Z,10.10
2019-02-09T13:50:24.166Z,9.62
2019-02-09T13:52:55.331Z,9.64
2019-02-09T13:55:26.822Z,9.75
2019-02-09T13:57:58.018Z,10.24
2019-02-09T14:00:29.546Z,11.23
2019-02-09T14:03:00.872Z,10.55
2019-02-09T14:06:09.277Z,9.89
2019-02-09T14:08:40.447Z,10.20
2019-02-09T14:11:11.658Z,9.74
2019-02-09T14:13:42.873Z,10.98
2019-02-09T14:16:14.080Z,9.88
2019-02-09T14:18:45.514Z,9.37
2019-02-09T14:21:16.833Z,9.23
2019-02-09T14:23:48.008Z,9.00
2019-02-09T14:26:19.314Z,9.15
2019-02-09T14:28:50.469Z,9.07
2019-02-09T14:31:37.147Z,8.98
2019-02-09T14:34:08.416Z,8.85
2019-02-09T14:36:39.607Z,8.99
2019-02-09T14:39:12.023Z,8.86
2019-02-09T14:41:43.232Z,9.06
2019-02-09T14:44:14.404Z,8.86
2019-02-09T14:47:40.302Z,8.81
2019-02-09T14:50:11.843Z,8.95
2019-02-09T14:52:43.147Z,8.60
2019-02-09T14:55:19.415Z,8.63
2019-02-09T14:57:51.092Z,8.67
2019-02-09T15:00:27.367Z,8.66
2019-02-09T15:02:58.585Z,8.58
2019-02-09T15:05:29.800Z,8.53
2019-02-09T15:08:00.995Z,8.48
2019-02-09T15:10:32.176Z,8.54
2019-02-09T15:13:03.227Z,8.58
2019-02-09T15:15:46.882Z,8.58
2019-02-09T15:18:18.192Z,8.56
2019-02-09T15:20:52.854Z,8.67
2019-02-09T15:23:24.033Z,8.56
2019-02-09T15:25:55.236Z,8.55
2019-02-09T15:28:26.435Z,8.55
2019-02-09T15:30:57.746Z,8.45
2019-02-09T15:33:28.898Z,8.34
2019-02-09T15:36:00.072Z,8.32
2019-02-09T15:38:31.537Z,8.33
2019-02-09T15:41:02.732Z,8.33
2019-02-09T15:43:33.922Z,8.21
2019-02-09T15:46:05.564Z,8.16
2019-02-09T15:48:36.764Z,8.17
2019-02-09T15:51:07.978Z,8.07
2019-02-09T15:53:39.158Z,8.04
2019-02-09T15:56:10.318Z,8.05
2019-02-09T15:58:41.495Z,8.03
2019-02-09T16:01:12.677Z,8.07
2019-02-09T16:03:43.855Z,8.02
2019-02-09T16:06:15.066Z,7.96
2019-02-09T16:08:46.341Z,7.96
2019-02-09T16:11:17.584Z,7.96
2019-02-09T16:13:49.851Z,7.90
2019-02-09T16:16:21.198Z,7.85
2019-02-09T16:19:46.255Z,7.84
2019-02-09T16:22:18.516Z,7.84
2019-02-09T16:24:49.723Z,7.85
2019-02-09T16:27:20.893Z,7.89
2019-02-09T16:29:52.096Z,7.94
2019-02-09T16:32:23.275Z,7.87
2019-02-09T16:34:54.464Z,7.84
2019-02-09T16:37:25.628Z,7.81
2019-02-09T16:39:56.811Z,7.81
2019-02-09T16:42:27.983Z,7.73
2019-02-09T16:45:00.366Z,7.72
2019-02-09T16:47:31.601Z,7.71
2019-02-09T16:50:02.841Z,7.68
2019-02-09T16:52:34.038Z,7.63
2019-02-09T16:55:05.968Z,7.60
2019-02-09T16:57:49.670Z,7.65
2019-02-09T17:00:24.396Z,7.58
2019-02-09T17:02:55.697Z,7.50
2019-02-09T17:05:27.204Z,7.48
2019-02-09T17:07:58.485Z,7.54
2019-02-09T17:10:29.784Z,7.41
2019-02-09T17:13:01.054Z,7.43
2019-02-09T17:15:32.248Z,7.32
2019-02-09T17:18:03.556Z,7.43
2019-02-09T17:20:34.901Z,7.31
2019-02-09T17:23:06.559Z,7.27
2019-02-09T17:25:37.745Z,7.30
2019-02-09T17:28:08.914Z,7.25
2019-02-09T17:30:40.118Z,7.24
2019-02-09T17:33:29.707Z,7.29
2019-02-09T17:36:00.949Z,7.25
2019-02-09T17:38:32.128Z,7.25
2019-02-09T17:41:03.416Z,7.23
2019-02-09T17:43:34.903Z,7.20
2019-02-09T17:46:14.741Z,7.26
2019-02-09T17:48:45.916Z,7.19
2019-02-09T17:51:17.270Z,7.23
2019-02-09T17:53:48.450Z,7.18
2019-02-09T17:56:19.639Z,7.13
2019-02-09T17:58:50.847Z,7.14
2019-02-09T18:01:22.050Z,7.13
2019-02-09T18:03:53.240Z,7.11
2019-02-09T18:06:24.489Z,7.18
2019-02-09T18:08:55.739Z,7.12
2019-02-09T18:11:26.927Z,7.21
2019-02-09T18:13:58.127Z,7.13
2019-02-09T18:16:29.322Z,7.14
2019-02-09T18:19:00.500Z,7.13
2019-02-09T18:21:31.689Z,7.16
2019-02-09T18:24:02.873Z,7.29
2019-02-09T18:26:34.049Z,7.27
2019-02-09T18:29:05.420Z,7.29
2019-02-09T18:31:36.599Z,7.33
2019-02-09T18:34:07.767Z,7.24
2019-02-09T18:36:38.966Z,7.23
2019-02-09T18:39:12.667Z,7.17
2019-02-09T18:41:43.842Z,7.26
2019-02-09T18:44:15.042Z,7.23
2019-02-09T18:46:46.227Z,7.18
2019-02-09T18:49:17.442Z,7.13
2019-02-09T18:51:49.136Z,7.21
2019-02-09T18:54:23.111Z,7.26
2019-02-09T18:56:54.291Z,7.25
2019-02-09T18:59:25.500Z,7.26
2019-02-09T19:01:56.674Z,7.23
2019-02-09T19:04:27.891Z,7.19
2019-02-09T19:06:59.069Z,7.32
2019-02-09T19:09:30.253Z,7.29
2019-02-09T19:12:01.504Z,7.29
2019-02-09T19:14:32.695Z,7.28
2019-02-09T19:17:03.877Z,7.26
2019-02-09T19:20:29.049Z,7.17
2019-02-09T19:23:24.056Z,7.21
2019-02-09T19:25:55.225Z,7.26
2019-02-09T19:28:26.407Z,7.25
2019-02-09T19:30:57.585Z,7.18
2019-02-09T19:33:28.827Z,7.28
2019-02-09T19:36:00.094Z,7.18
2019-02-09T19:38:31.382Z,7.20
2019-02-09T19:41:02.551Z,7.14
2019-02-09T19:43:34.810Z,7.21
2019-02-09T19:46:06.439Z,7.15
2019-02-09T19:48:37.649Z,7.12
2019-02-09T19:51:08.839Z,7.23
2019-02-09T19:53:41.221Z,7.02
2019-02-09T19:56:12.481Z,7.07
2019-02-09T19:58:43.716Z,7.00
2019-02-09T20:01:14.890Z,7.04
2019-02-09T20:03:46.168Z,7.04
2019-02-09T20:06:17.339Z,6.99
2019-02-09T20:08:48.541Z,6.95
2019-02-09T20:11:19.727Z,7.12
2019-02-09T20:13:50.920Z,7.05
2019-02-09T20:16:31.530Z,7.11
2019-02-09T20:19:02.801Z,7.12
2019-02-09T20:21:34.030Z,7.08
2019-02-09T20:24:05.730Z,7.04
2019-02-09T20:26:37.894Z,6.99
2019-02-09T20:29:09.092Z,6.97
2019-02-09T20:31:40.334Z,7.05
2019-02-09T20:34:11.539Z,6.98
2019-02-09T20:36:42.735Z,7.03
2019-02-09T20:39:13.914Z,6.93
2019-02-09T20:41:45.106Z,6.96
2019-02-09T20:44:16.292Z,7.09
2019-02-09T20:46:47.504Z,7.13
2019-02-09T20:49:57.765Z,7.44
2019-02-09T20:52:28.928Z,7.12
2019-02-09T20:55:00.264Z,7.06
2019-02-09T20:57:31.582Z,7.09
2019-02-09T21:00:02.796Z,7.09
2019-02-09T21:02:35.059Z,7.07
2019-02-09T21:05:06.572Z,7.11
2019-02-09T21:07:50.094Z,7.07
2019-02-09T21:10:23.346Z,7.01
2019-02-09T21:13:48.606Z,7.17
2019-02-09T21:16:37.811Z,7.17
2019-02-09T21:19:08.961Z,7.02
2019-02-09T21:21:40.174Z,7.08
2019-02-09T21:24:11.332Z,7.03
2019-02-09T21:26:42.616Z,7.06
2019-02-09T21:29:13.853Z,7.03
2019-02-09T21:31:45.073Z,7.04
2019-02-09T21:34:16.255Z,7.06
2019-02-09T21:36:48.335Z,7.01
2019-02-09T21:39:19.517Z,7.08
2019-02-09T21:41:51.102Z,7.22
2019-02-09T21:44:22.286Z,7.16
2019-02-09T21:46:53.480Z,7.14
2019-02-09T21:49:24.759Z,7.02
2019-02-09T21:51:55.954Z,7.19
2019-02-09T21:54:27.124Z,7.14
2019-02-09T21:56:58.331Z,7.05
2019-02-09T21:59:29.500Z,7.09
2019-02-09T22:02:00.686Z,7.05
2019-02-09T22:04:31.888Z,6.97
2019-02-09T22:07:03.075Z,7.07
2019-02-09T22:09:34.242Z,7.07
2019-02-09T22:12:05.772Z,7.10
2019-02-09T22:14:37.126Z,7.02
2019-02-09T22:17:08.564Z,7.05
2019-02-09T22:19:39.901Z,7.15
2019-02-09T22:22:11.090Z,7.12
2019-02-09T22:24:42.265Z,7.07
2019-02-09T22:27:13.462Z,7.09
2019-02-09T22:29:44.659Z,7.01
2019-02-09T22:32:15.805Z,7.14
2019-02-09T22:34:46.997Z,7.06
2019-02-09T22:37:18.287Z,7.10
2019-02-09T22:39:49.602Z,6.99
2019-02-09T22:42:20.835Z,6.99
2019-02-09T22:44:52.003Z,7.02
2019-02-09T22:47:23.202Z,7.02
2019-02-09T22:49:54.380Z,6.91
2019-02-09T22:52:25.572Z,6.87
2019-02-09T22:54:59.490Z,6.91
2019-02-09T22:57:30.675Z,6.95
2019-02-09T23:00:01.922Z,7.03
2019-02-09T23:02:34.705Z,6.89
2019-02-09T23:05:54.979Z,6.83
2019-02-09T23:08:26.179Z,6.72
2019-02-09T23:11:50.959Z,6.76
2019-02-09T23:14:40.615Z,6.76
2019-02-09T23:17:11.882Z,6.67
2019-02-09T23:19:43.161Z,6.61
2019-02-09T23:22:14.447Z,6.60
2019-02-09T23:24:46.148Z,6.55
2019-02-09T23:27:17.406Z,6.61
2019-02-09T23:29:48.599Z,6.66
2019-02-09T23:32:19.766Z,6.65
2019-02-09T23:34:50.956Z,6.44
2019-02-09T23:38:15.995Z,6.46
2019-02-09T23:41:05.461Z,6.53
2019-02-09T23:44:30.592Z,6.78
2019-02-09T23:48:13.945Z,6.56
2019-02-09T23:50:59.849Z,6.53
2019-02-09T23:53:31.051Z,6.46
2019-02-09T23:56:02.217Z,6.31
2019-02-09T23:58:34.512Z,6.24
